DAL3991 KSMF-KSNA
Flight info
| Callsign | DAL3991 |
|---|---|
| Flight time | N/A |
| Altitude | 35000 |
| Route | FTHIL3 FRA DCT REBRG DCT |
| Aircraft | A310/H-SDFGHIM1RTUWXY/LB1 |
Departure
| Time | 2026-05-03 22:38 |
|---|---|
| Airport | Sacramento International Airport (KSMF) |
Arrival
| Time | N/A |
|---|---|
| Airport | John Wayne Orange County International Airport (KSNA) |
| Time | Latitude | Longitude | Altitude | Speed | Heading |
|---|---|---|---|---|---|
| 2026-05-03 21:55 | 38.69292 | -121.58589 | 39 ft | 0 kts | 277° |
| 2026-05-03 22:26 | 38.69292 | -121.58580 | 39 ft | 3 kts | 277° |
| 2026-05-03 22:27 | 38.69292 | -121.58581 | 39 ft | 1 kts | 277° |
| 2026-05-03 22:27 | 38.69292 | -121.58589 | 39 ft | 0 kts | 277° |
| 2026-05-03 22:28 | 38.69292 | -121.58588 | 39 ft | 2 kts | 277° |
| 2026-05-03 22:28 | 38.69290 | -121.58567 | 39 ft | 2 kts | 277° |
| 2026-05-03 22:29 | 38.69288 | -121.58546 | 39 ft | 2 kts | 277° |
| 2026-05-03 22:29 | 38.69286 | -121.58526 | 35 ft | 2 kts | 277° |
| 2026-05-03 22:29 | 38.69283 | -121.58504 | 35 ft | 3 kts | 295° |
| 2026-05-03 22:29 | 38.69273 | -121.58486 | 37 ft | 3 kts | 327° |
| 2026-05-03 22:30 | 38.69266 | -121.58480 | 36 ft | 0 kts | 341° |
| 2026-05-03 22:31 | 38.69266 | -121.58481 | 36 ft | 1 kts | 341° |
| 2026-05-03 22:32 | 38.69271 | -121.58483 | 35 ft | 1 kts | 339° |
| 2026-05-03 22:32 | 38.69283 | -121.58489 | 36 ft | 3 kts | 339° |
| 2026-05-03 22:32 | 38.69311 | -121.58498 | 38 ft | 6 kts | 347° |
| 2026-05-03 22:32 | 38.69365 | -121.58499 | 37 ft | 9 kts | 13° |
| 2026-05-03 22:33 | 38.69403 | -121.58421 | 35 ft | 12 kts | 88° |
| 2026-05-03 22:33 | 38.69401 | -121.58376 | 35 ft | 1 kts | 92° |
| 2026-05-03 22:33 | 38.69401 | -121.58341 | 35 ft | 10 kts | 86° |
| 2026-05-03 22:33 | 38.69447 | -121.58291 | 36 ft | 8 kts | 4° |
| 2026-05-03 22:34 | 38.69531 | -121.58290 | 36 ft | 26 kts | 359° |
| 2026-05-03 22:34 | 38.69726 | -121.58292 | 37 ft | 28 kts | 359° |
| 2026-05-03 22:34 | 38.69921 | -121.58291 | 40 ft | 28 kts | 0° |
| 2026-05-03 22:34 | 38.70118 | -121.58290 | 43 ft | 29 kts | 0° |
| 2026-05-03 22:35 | 38.70313 | -121.58275 | 44 ft | 25 kts | 360° |
| 2026-05-03 22:35 | 38.70498 | -121.58275 | 42 ft | 27 kts | 2° |
| 2026-05-03 22:35 | 38.70664 | -121.58265 | 39 ft | 22 kts | 22° |
| 2026-05-03 22:35 | 38.70700 | -121.58171 | 41 ft | 11 kts | 86° |
| 2026-05-03 22:36 | 38.70702 | -121.58116 | 41 ft | 25 kts | 89° |
| 2026-05-03 22:36 | 38.70600 | -121.57993 | 40 ft | 12 kts | 186° |
| 2026-05-03 22:36 | 38.70596 | -121.57994 | 40 ft | 0 kts | 186° |
| 2026-05-03 22:37 | 38.70549 | -121.58000 | 41 ft | 37 kts | 184° |
| 2026-05-03 22:37 | 38.69959 | -121.58018 | 41 ft | 130 kts | 181° |
| 2026-05-03 22:37 | 38.68790 | -121.58028 | 55 ft | 202 kts | 180° |
| 2026-05-03 22:38 | 38.67290 | -121.58036 | 955 ft | 211 kts | 180° |
| 2026-05-03 22:38 | 38.65885 | -121.58060 | 2616 ft | 195 kts | 182° |
| 2026-05-03 22:38 | 38.64570 | -121.58108 | 3968 ft | 188 kts | 182° |
| 2026-05-03 22:38 | 38.63283 | -121.57944 | 5196 ft | 187 kts | 161° |
| 2026-05-03 22:39 | 38.62207 | -121.57044 | 6415 ft | 188 kts | 133° |
| 2026-05-03 22:39 | 38.61547 | -121.55601 | 7580 ft | 189 kts | 118° |
| 2026-05-03 22:39 | 38.61023 | -121.54052 | 8634 ft | 198 kts | 118° |
| 2026-05-03 22:39 | 38.60433 | -121.52264 | 9084 ft | 236 kts | 116° |
| 2026-05-03 22:40 | 38.59824 | -121.50174 | 9744 ft | 264 kts | 116° |
| 2026-05-03 22:40 | 38.59088 | -121.47882 | 10577 ft | 291 kts | 118° |
| 2026-05-03 22:40 | 38.58223 | -121.45471 | 11806 ft | 301 kts | 120° |
| 2026-05-03 22:40 | 38.57297 | -121.43053 | 13329 ft | 304 kts | 121° |
| 2026-05-03 22:41 | 38.56336 | -121.40677 | 14700 ft | 306 kts | 122° |
| 2026-05-03 22:41 | 38.55315 | -121.38283 | 16023 ft | 307 kts | 123° |
| 2026-05-03 22:41 | 38.54251 | -121.35915 | 17366 ft | 306 kts | 124° |
| 2026-05-03 22:41 | 38.53155 | -121.33591 | 18637 ft | 304 kts | 126° |
| 2026-05-03 22:42 | 38.52027 | -121.31310 | 19798 ft | 302 kts | 127° |
| 2026-05-03 22:42 | 38.50888 | -121.29113 | 20929 ft | 298 kts | 128° |
| 2026-05-03 22:42 | 38.49699 | -121.26954 | 22065 ft | 295 kts | 129° |
| 2026-05-03 22:42 | 38.48476 | -121.24872 | 23169 ft | 291 kts | 131° |
| 2026-05-03 22:43 | 38.47236 | -121.22888 | 24049 ft | 274 kts | 133° |
| 2026-05-03 22:43 | 38.46056 | -121.21103 | 24612 ft | 260 kts | 135° |
| 2026-05-03 22:43 | 38.44831 | -121.19383 | 25210 ft | 264 kts | 137° |
| 2026-05-03 22:43 | 38.43542 | -121.17702 | 25825 ft | 266 kts | 139° |
| 2026-05-03 22:44 | 38.42196 | -121.16071 | 26468 ft | 267 kts | 140° |
| 2026-05-03 22:44 | 38.40801 | -121.14498 | 27106 ft | 268 kts | 142° |
| 2026-05-03 22:44 | 38.39360 | -121.12987 | 27725 ft | 268 kts | 144° |
| 2026-05-03 22:44 | 38.37876 | -121.11544 | 28342 ft | 269 kts | 146° |
| 2026-05-03 22:45 | 38.36348 | -121.10165 | 28982 ft | 269 kts | 148° |
| 2026-05-03 22:45 | 38.34782 | -121.08859 | 29544 ft | 269 kts | 150° |
| 2026-05-03 22:45 | 38.33178 | -121.07625 | 30094 ft | 269 kts | 152° |
| 2026-05-03 22:45 | 38.31542 | -121.06469 | 30550 ft | 269 kts | 154° |
| 2026-05-03 22:46 | 38.29868 | -121.05388 | 30990 ft | 270 kts | 156° |
| 2026-05-03 22:46 | 38.28164 | -121.04381 | 31407 ft | 270 kts | 159° |
| 2026-05-03 22:46 | 38.26415 | -121.03443 | 31677 ft | 278 kts | 160° |
| 2026-05-03 22:46 | 38.24562 | -121.02529 | 31689 ft | 294 kts | 162° |
| 2026-05-03 22:47 | 38.22599 | -121.01649 | 31866 ft | 304 kts | 163° |
| 2026-05-03 22:47 | 38.20546 | -121.00812 | 32087 ft | 314 kts | 165° |
| 2026-05-03 22:47 | 38.18456 | -121.00048 | 32413 ft | 320 kts | 167° |
| 2026-05-03 22:47 | 38.16224 | -120.99355 | 32367 ft | 338 kts | 169° |
| 2026-05-03 22:48 | 38.13870 | -120.98681 | 32581 ft | 345 kts | 169° |
| 2026-05-03 22:48 | 38.11514 | -120.98023 | 32756 ft | 358 kts | 170° |
| 2026-05-03 22:48 | 38.09008 | -120.97519 | 32798 ft | 370 kts | 178° |
| 2026-05-03 22:48 | 38.06395 | -120.97641 | 32851 ft | 382 kts | 189° |
| 2026-05-03 22:49 | 38.03756 | -120.98386 | 32890 ft | 396 kts | 194° |
| 2026-05-03 22:49 | 38.00992 | -120.98964 | 32922 ft | 410 kts | 185° |
| 2026-05-03 22:49 | 37.98093 | -120.98918 | 32956 ft | 420 kts | 176° |
| 2026-05-03 22:50 | 37.92441 | -120.96936 | 32994 ft | 432 kts | 158° |
| 2026-05-03 22:50 | 37.87454 | -120.92560 | 33024 ft | 443 kts | 139° |
| 2026-05-03 22:51 | 37.83576 | -120.86409 | 33067 ft | 450 kts | 128° |
| 2026-05-03 22:51 | 37.80370 | -120.79615 | 33091 ft | 439 kts | 123° |
| 2026-05-03 22:52 | 37.77376 | -120.72878 | 33191 ft | 450 kts | 123° |
| 2026-05-03 22:52 | 37.74275 | -120.65902 | 33253 ft | 458 kts | 123° |
| 2026-05-03 22:53 | 37.71139 | -120.58851 | 33280 ft | 461 kts | 123° |
| 2026-05-03 22:53 | 37.68011 | -120.51814 | 33316 ft | 463 kts | 123° |
| 2026-05-03 22:54 | 37.64858 | -120.44717 | 33356 ft | 464 kts | 123° |
| 2026-05-03 22:54 | 37.61835 | -120.37509 | 33387 ft | 468 kts | 116° |
| 2026-05-03 22:55 | 37.59554 | -120.29807 | 33423 ft | 470 kts | 113° |
| 2026-05-03 22:55 | 37.57375 | -120.22035 | 33468 ft | 470 kts | 113° |
| 2026-05-03 22:56 | 37.55192 | -120.14233 | 33498 ft | 475 kts | 113° |
| 2026-05-03 22:56 | 37.52985 | -120.06354 | 33723 ft | 478 kts | 113° |
| 2026-05-03 22:56 | 37.51879 | -120.02408 | 34367 ft | 476 kts | 113° |
| 2026-05-03 22:57 | 37.50778 | -119.98471 | 34854 ft | 477 kts | 113° |
| 2026-05-03 22:57 | 37.49680 | -119.94538 | 35382 ft | 476 kts | 113° |
| 2026-05-03 22:57 | 37.48583 | -119.90600 | 35826 ft | 477 kts | 113° |
| 2026-05-03 22:57 | 37.47499 | -119.86704 | 36308 ft | 477 kts | 113° |
| 2026-05-03 22:58 | 37.46406 | -119.82759 | 36812 ft | 477 kts | 113° |
| 2026-05-03 22:58 | 37.45316 | -119.78819 | 37273 ft | 477 kts | 113° |
| 2026-05-03 22:58 | 37.44225 | -119.74875 | 37765 ft | 477 kts | 113° |
| 2026-05-03 22:58 | 37.43137 | -119.70934 | 38246 ft | 477 kts | 113° |
| 2026-05-03 22:59 | 37.42049 | -119.66989 | 38667 ft | 478 kts | 113° |
| 2026-05-03 22:59 | 37.40955 | -119.63021 | 38782 ft | 481 kts | 113° |
| 2026-05-03 22:59 | 37.39860 | -119.59055 | 38867 ft | 480 kts | 113° |
| 2026-05-03 23:00 | 37.37672 | -119.51136 | 38885 ft | 479 kts | 113° |
| 2026-05-03 23:00 | 37.35482 | -119.43232 | 38886 ft | 478 kts | 113° |
| 2026-05-03 23:01 | 37.33292 | -119.35347 | 38880 ft | 477 kts | 113° |
| 2026-05-03 23:01 | 37.31103 | -119.27459 | 38885 ft | 478 kts | 113° |
| 2026-05-03 23:02 | 37.28914 | -119.19574 | 38892 ft | 478 kts | 113° |
| 2026-05-03 23:02 | 37.26676 | -119.11728 | 38892 ft | 475 kts | 118° |
| 2026-05-03 23:02 | 37.24956 | -119.08259 | 38890 ft | 464 kts | 135° |
| 2026-05-03 23:03 | 37.22612 | -119.05544 | 38898 ft | 455 kts | 148° |
| 2026-05-03 23:03 | 37.17331 | -119.01155 | 38885 ft | 455 kts | 151° |
| 2026-05-03 23:03 | 37.14883 | -118.98598 | 38887 ft | 463 kts | 136° |
| 2026-05-03 23:04 | 37.13038 | -118.95249 | 38893 ft | 472 kts | 120° |
| 2026-05-03 23:04 | 37.10584 | -118.87591 | 38869 ft | 479 kts | 113° |
| 2026-05-03 23:05 | 37.08370 | -118.79710 | 38868 ft | 479 kts | 112° |
| 2026-05-03 23:05 | 37.06179 | -118.71828 | 38850 ft | 479 kts | 113° |
| 2026-05-03 23:06 | 37.03996 | -118.63937 | 38837 ft | 479 kts | 112° |
| 2026-05-03 23:06 | 37.01814 | -118.56085 | 38822 ft | 480 kts | 112° |
| 2026-05-03 23:07 | 36.99612 | -118.48173 | 38795 ft | 481 kts | 112° |
| 2026-05-03 23:07 | 36.97404 | -118.40259 | 38778 ft | 482 kts | 112° |
| 2026-05-03 23:08 | 36.95193 | -118.32299 | 38744 ft | 484 kts | 112° |
| 2026-05-03 23:08 | 36.93002 | -118.24387 | 38728 ft | 484 kts | 112° |
| 2026-05-03 23:09 | 36.90841 | -118.16525 | 38771 ft | 467 kts | 112° |
| 2026-05-03 23:09 | 36.88734 | -118.08818 | 38665 ft | 477 kts | 112° |
| 2026-05-03 23:10 | 36.86556 | -118.00877 | 38625 ft | 483 kts | 112° |
| 2026-05-03 23:10 | 36.84381 | -117.92933 | 38591 ft | 484 kts | 112° |
| 2026-05-03 23:11 | 36.82181 | -117.84966 | 38616 ft | 485 kts | 112° |
| 2026-05-03 23:11 | 36.79903 | -117.77050 | 38652 ft | 482 kts | 121° |
| 2026-05-03 23:11 | 36.78085 | -117.73609 | 38645 ft | 471 kts | 137° |
| 2026-05-03 23:12 | 36.75650 | -117.70981 | 38637 ft | 458 kts | 154° |
| 2026-05-03 23:12 | 36.72801 | -117.69354 | 38664 ft | 447 kts | 170° |
| 2026-05-03 23:12 | 36.70799 | -117.68872 | 38669 ft | 439 kts | 181° |
| 2026-05-03 23:12 | 36.67769 | -117.68933 | 38678 ft | 432 kts | 192° |
| 2026-05-03 23:13 | 36.64847 | -117.69708 | 38678 ft | 428 kts | 200° |
| 2026-05-03 23:13 | 36.59158 | -117.71918 | 38656 ft | 427 kts | 202° |
| 2026-05-03 23:14 | 36.53501 | -117.74216 | 38659 ft | 427 kts | 202° |
| 2026-05-03 23:14 | 36.47936 | -117.76621 | 38693 ft | 423 kts | 209° |
| 2026-05-03 23:14 | 36.45441 | -117.78496 | 38699 ft | 417 kts | 220° |
| 2026-05-03 23:15 | 36.43227 | -117.80815 | 38703 ft | 415 kts | 225° |
| 2026-05-03 23:15 | 36.39602 | -117.86305 | 38718 ft | 410 kts | 244° |
| 2026-05-03 23:16 | 36.37934 | -117.93027 | 38730 ft | 410 kts | 262° |
| 2026-05-03 23:16 | 36.38300 | -118.00102 | 38746 ft | 416 kts | 279° |
| 2026-05-03 23:17 | 36.39774 | -118.07014 | 38758 ft | 417 kts | 282° |
| 2026-05-03 23:17 | 36.41377 | -118.13944 | 38285 ft | 416 kts | 282° |
| 2026-05-03 23:17 | 36.42171 | -118.17414 | 37462 ft | 416 kts | 280° |
| 2026-05-03 23:18 | 36.42620 | -118.20954 | 36659 ft | 413 kts | 271° |
| 2026-05-03 23:18 | 36.42569 | -118.24519 | 35838 ft | 412 kts | 262° |
| 2026-05-03 23:18 | 36.42010 | -118.27940 | 35304 ft | 407 kts | 252° |
| 2026-05-03 23:18 | 36.41066 | -118.31254 | 35065 ft | 408 kts | 248° |
| 2026-05-03 23:19 | 36.40003 | -118.34549 | 34954 ft | 411 kts | 248° |
| 2026-05-03 23:19 | 36.37804 | -118.41184 | 34872 ft | 419 kts | 248° |
| 2026-05-03 23:20 | 36.35567 | -118.47894 | 34879 ft | 421 kts | 248° |
| 2026-05-03 23:20 | 36.33345 | -118.54561 | 34880 ft | 420 kts | 248° |
| 2026-05-03 23:21 | 36.31109 | -118.61254 | 34865 ft | 420 kts | 247° |
| 2026-05-03 23:21 | 36.28875 | -118.67956 | 34878 ft | 419 kts | 248° |
| 2026-05-03 23:22 | 36.25512 | -118.78067 | 34894 ft | 430 kts | 248° |
| 2026-05-03 23:22 | 36.23254 | -118.84860 | 34854 ft | 414 kts | 248° |
| 2026-05-03 23:23 | 36.21176 | -118.91417 | 34871 ft | 406 kts | 249° |
| 2026-05-03 23:23 | 36.19128 | -118.97932 | 34885 ft | 406 kts | 249° |
| 2026-05-03 23:24 | 36.17082 | -119.04453 | 34886 ft | 405 kts | 249° |
| 2026-05-03 23:24 | 36.15041 | -119.10954 | 34882 ft | 404 kts | 249° |
| 2026-05-03 23:25 | 36.13017 | -119.17403 | 34876 ft | 404 kts | 249° |
| 2026-05-03 23:25 | 36.10982 | -119.23881 | 34869 ft | 403 kts | 249° |
| 2026-05-03 23:26 | 36.08953 | -119.30339 | 34873 ft | 403 kts | 249° |
| 2026-05-03 23:26 | 36.06926 | -119.36787 | 34864 ft | 402 kts | 249° |
| 2026-05-03 23:27 | 36.04903 | -119.43229 | 34867 ft | 401 kts | 249° |
| 2026-05-03 23:27 | 36.02885 | -119.49654 | 34868 ft | 401 kts | 249° |
| 2026-05-03 23:28 | 36.00869 | -119.56076 | 34873 ft | 400 kts | 249° |
| 2026-05-03 23:28 | 35.98859 | -119.62471 | 34858 ft | 399 kts | 249° |
| 2026-05-03 23:29 | 35.96694 | -119.68777 | 34869 ft | 399 kts | 241° |
| 2026-05-03 23:29 | 35.93115 | -119.73999 | 34870 ft | 404 kts | 223° |
| 2026-05-03 23:30 | 35.88156 | -119.77409 | 34881 ft | 416 kts | 205° |
| 2026-05-03 23:30 | 35.85314 | -119.78246 | 34866 ft | 427 kts | 192° |
| 2026-05-03 23:30 | 35.82301 | -119.78104 | 34881 ft | 442 kts | 179° |
| 2026-05-03 23:31 | 35.76332 | -119.75978 | 34890 ft | 458 kts | 165° |
| 2026-05-03 23:31 | 35.70515 | -119.72685 | 34864 ft | 461 kts | 162° |
| 2026-05-03 23:32 | 35.64751 | -119.69144 | 34877 ft | 468 kts | 157° |
| 2026-05-03 23:32 | 35.59307 | -119.64619 | 34874 ft | 473 kts | 153° |
| 2026-05-03 23:33 | 35.54273 | -119.59226 | 34869 ft | 484 kts | 143° |
| 2026-05-03 23:33 | 35.49485 | -119.53386 | 34862 ft | 485 kts | 142° |
| 2026-05-03 23:34 | 35.44712 | -119.47525 | 34862 ft | 486 kts | 142° |
| 2026-05-03 23:34 | 35.39937 | -119.41647 | 34843 ft | 486 kts | 142° |
| 2026-05-03 23:35 | 35.35160 | -119.35766 | 34840 ft | 487 kts | 142° |
| 2026-05-03 23:35 | 35.30414 | -119.29915 | 34854 ft | 487 kts | 142° |
| 2026-05-03 23:36 | 35.25636 | -119.24019 | 34836 ft | 487 kts | 142° |
| 2026-05-03 23:36 | 35.20859 | -119.18110 | 34850 ft | 488 kts | 142° |
| 2026-05-03 23:37 | 35.16090 | -119.12206 | 34843 ft | 488 kts | 142° |
| 2026-05-03 23:37 | 35.11315 | -119.06280 | 34847 ft | 489 kts | 142° |
| 2026-05-03 23:38 | 35.06543 | -119.00349 | 34850 ft | 490 kts | 142° |
| 2026-05-03 23:38 | 35.01800 | -118.94433 | 34856 ft | 490 kts | 142° |
| 2026-05-03 23:39 | 34.97050 | -118.88372 | 34874 ft | 501 kts | 143° |
| 2026-05-03 23:39 | 34.92340 | -118.82054 | 34869 ft | 505 kts | 142° |
| 2026-05-03 23:40 | 34.87631 | -118.75707 | 34878 ft | 505 kts | 142° |
| 2026-05-03 23:40 | 34.82912 | -118.69331 | 34886 ft | 506 kts | 142° |
| 2026-05-03 23:41 | 34.78238 | -118.62994 | 34870 ft | 493 kts | 142° |
| 2026-05-03 23:41 | 34.76009 | -118.59923 | 34857 ft | 479 kts | 142° |
| 2026-05-03 23:41 | 34.73813 | -118.56867 | 34879 ft | 479 kts | 142° |
| 2026-05-03 23:42 | 34.69451 | -118.50807 | 34877 ft | 479 kts | 142° |
| 2026-05-03 23:42 | 34.65053 | -118.44700 | 34882 ft | 478 kts | 142° |
| 2026-05-03 23:43 | 34.60678 | -118.38605 | 34872 ft | 479 kts | 142° |
| 2026-05-03 23:43 | 34.56303 | -118.32487 | 34880 ft | 480 kts | 142° |
| 2026-05-03 23:44 | 34.51930 | -118.26350 | 34882 ft | 482 kts | 142° |
| 2026-05-03 23:44 | 34.49771 | -118.23296 | 34856 ft | 471 kts | 142° |
| 2026-05-03 23:44 | 34.47689 | -118.20320 | 34854 ft | 468 kts | 142° |
| 2026-05-03 23:45 | 34.43487 | -118.14289 | 34852 ft | 466 kts | 142° |
| 2026-05-03 23:45 | 34.41443 | -118.11325 | 34836 ft | 450 kts | 142° |
| 2026-05-03 23:45 | 34.39486 | -118.08429 | 34835 ft | 434 kts | 142° |
| 2026-05-03 23:46 | 34.37620 | -118.05640 | 34836 ft | 418 kts | 141° |
| 2026-05-03 23:46 | 34.35804 | -118.02987 | 34845 ft | 402 kts | 142° |
| 2026-05-03 23:46 | 34.32283 | -117.97832 | 34870 ft | 398 kts | 139° |
| 2026-05-03 23:47 | 34.30815 | -117.94922 | 34909 ft | 416 kts | 120° |
| 2026-05-03 23:47 | 34.30077 | -117.91525 | 34933 ft | 432 kts | 99° |
| 2026-05-03 23:47 | 34.30022 | -117.87872 | 34858 ft | 441 kts | 86° |
| 2026-05-03 23:47 | 34.30416 | -117.84197 | 34930 ft | 443 kts | 83° |
| 2026-05-03 23:48 | 34.31989 | -117.77055 | 34911 ft | 437 kts | 55° |
| 2026-05-03 23:48 | 34.33783 | -117.74160 | 34919 ft | 423 kts | 35° |
| 2026-05-03 23:48 | 34.36081 | -117.72111 | 34912 ft | 399 kts | 13° |
| 2026-05-03 23:49 | 34.38612 | -117.70920 | 34911 ft | 388 kts | 4° |
| 2026-05-03 23:49 | 34.41190 | -117.70002 | 34880 ft | 387 kts | 2° |
| 2026-05-03 23:49 | 34.46333 | -117.68616 | 34851 ft | 373 kts | 353° |
| 2026-05-03 23:50 | 34.50637 | -117.68009 | 34848 ft | 371 kts | 352° |
| 2026-05-03 23:50 | 34.56456 | -117.67873 | 34855 ft | 344 kts | 335° |
| 2026-05-03 23:51 | 34.61133 | -117.69014 | 34837 ft | 342 kts | 333° |
| 2026-05-03 23:51 | 34.65774 | -117.70269 | 34825 ft | 335 kts | 327° |
| 2026-05-03 23:52 | 34.70012 | -117.72305 | 34790 ft | 326 kts | 322° |
| 2026-05-03 23:52 | 34.74173 | -117.74483 | 34805 ft | 326 kts | 322° |
| 2026-05-03 23:53 | 34.78336 | -117.76679 | 34799 ft | 326 kts | 322° |
| 2026-05-03 23:53 | 34.82537 | -117.78910 | 34803 ft | 331 kts | 322° |
| 2026-05-03 23:54 | 34.86765 | -117.81178 | 34810 ft | 332 kts | 322° |
| 2026-05-03 23:54 | 34.90787 | -117.83716 | 34801 ft | 306 kts | 303° |
| 2026-05-03 23:55 | 34.92009 | -117.85682 | 34826 ft | 284 kts | 287° |
| 2026-05-03 23:55 | 34.92808 | -117.87871 | 34805 ft | 282 kts | 283° |
| 2026-05-03 23:55 | 34.93523 | -117.90090 | 34809 ft | 281 kts | 282° |
| 2026-05-03 23:55 | 34.94223 | -117.92320 | 34788 ft | 282 kts | 282° |
| 2026-05-03 23:56 | 34.94923 | -117.94552 | 34803 ft | 282 kts | 282° |
| 2026-05-03 23:56 | 34.95614 | -117.96752 | 34809 ft | 282 kts | 282° |
| 2026-05-03 23:56 | 34.96292 | -117.98991 | 34792 ft | 279 kts | 277° |
| 2026-05-03 23:56 | 34.96698 | -118.01267 | 34799 ft | 274 kts | 273° |
| 2026-05-03 23:57 | 34.97000 | -118.03561 | 34836 ft | 274 kts | 272° |
| 2026-05-03 23:57 | 34.97285 | -118.05856 | 34839 ft | 274 kts | 272° |
| 2026-05-03 23:57 | 34.97570 | -118.08146 | 34847 ft | 273 kts | 272° |
| 2026-05-03 23:57 | 34.97767 | -118.09685 | 34847 ft | 270 kts | 272° |
| 2026-05-03 23:58 | 34.98018 | -118.11938 | 34846 ft | 265 kts | 265° |
| 2026-05-03 23:58 | 34.97838 | -118.14142 | 34851 ft | 260 kts | 255° |
| 2026-05-03 23:58 | 34.97311 | -118.16246 | 34847 ft | 260 kts | 247° |
| 2026-05-03 23:58 | 34.96478 | -118.18171 | 34850 ft | 260 kts | 241° |
| 2026-05-03 23:59 | 34.95345 | -118.19923 | 34846 ft | 264 kts | 236° |
| 2026-05-03 23:59 | 34.94358 | -118.21776 | 34846 ft | 259 kts | 248° |
| 2026-05-03 23:59 | 34.93847 | -118.23874 | 34856 ft | 259 kts | 260° |
| 2026-05-03 23:59 | 34.93844 | -118.26084 | 34850 ft | 265 kts | 272° |
| 2026-05-04 00:00 | 34.94358 | -118.28284 | 34848 ft | 276 kts | 284° |
| 2026-05-04 00:00 | 34.95375 | -118.30335 | 34861 ft | 291 kts | 296° |
| 2026-05-04 00:00 | 34.96860 | -118.32120 | 34849 ft | 309 kts | 309° |
| 2026-05-04 00:00 | 34.98752 | -118.33521 | 34856 ft | 329 kts | 321° |
| 2026-05-04 00:01 | 35.00985 | -118.34444 | 34910 ft | 348 kts | 333° |
| 2026-05-04 00:01 | 35.03455 | -118.34806 | 34922 ft | 367 kts | 343° |
| 2026-05-04 00:01 | 35.08458 | -118.35427 | 34919 ft | 351 kts | 331° |
| 2026-05-04 00:02 | 35.10703 | -118.36336 | 34923 ft | 331 kts | 320° |
| 2026-05-04 00:02 | 35.12683 | -118.37661 | 34918 ft | 321 kts | 313° |
| 2026-05-04 00:02 | 35.16307 | -118.40690 | 34917 ft | 317 kts | 310° |
| 2026-05-04 00:03 | 35.19987 | -118.43741 | 34918 ft | 320 kts | 312° |
| 2026-05-04 00:03 | 35.23715 | -118.46743 | 34931 ft | 320 kts | 312° |
| 2026-05-04 00:04 | 35.27386 | -118.49785 | 34871 ft | 310 kts | 306° |
| 2026-05-04 00:04 | 35.30509 | -118.53293 | 34895 ft | 305 kts | 302° |
| 2026-05-04 00:05 | 35.33532 | -118.56889 | 34892 ft | 305 kts | 302° |
| 2026-05-04 00:05 | 35.36593 | -118.60506 | 34885 ft | 305 kts | 302° |
| 2026-05-04 00:06 | 35.39652 | -118.64129 | 34869 ft | 305 kts | 302° |
| 2026-05-04 00:06 | 35.42712 | -118.67748 | 34852 ft | 305 kts | 302° |
| 2026-05-04 00:07 | 35.45754 | -118.71337 | 34845 ft | 305 kts | 302° |
| 2026-05-04 00:07 | 35.48812 | -118.74922 | 34848 ft | 302 kts | 302° |
| 2026-05-04 00:08 | 35.51755 | -118.78652 | 34850 ft | 303 kts | 292° |
| 2026-05-04 00:08 | 35.52753 | -118.80880 | 34854 ft | 292 kts | 281° |
| 2026-05-04 00:08 | 35.53263 | -118.83248 | 34866 ft | 283 kts | 270° |
| 2026-05-04 00:09 | 35.53280 | -118.85632 | 34847 ft | 277 kts | 259° |
| 2026-05-04 00:09 | 35.52803 | -118.87913 | 34843 ft | 278 kts | 248° |
| 2026-05-04 00:09 | 35.51837 | -118.90039 | 34849 ft | 295 kts | 237° |
| 2026-05-04 00:09 | 35.50397 | -118.91947 | 34840 ft | 316 kts | 227° |
| 2026-05-04 00:10 | 35.48521 | -118.93533 | 34835 ft | 340 kts | 217° |
| 2026-05-04 00:10 | 35.46259 | -118.94708 | 34830 ft | 366 kts | 207° |
| 2026-05-04 00:10 | 35.43760 | -118.95519 | 34830 ft | 385 kts | 203° |
| 2026-05-04 00:10 | 35.41100 | -118.96255 | 34841 ft | 399 kts | 202° |
| 2026-05-04 00:11 | 35.38326 | -118.96970 | 34843 ft | 418 kts | 199° |
| 2026-05-04 00:11 | 35.35341 | -118.97255 | 34833 ft | 443 kts | 190° |
| 2026-05-04 00:11 | 35.32185 | -118.96935 | 34823 ft | 456 kts | 181° |
| 2026-05-04 00:11 | 35.29058 | -118.95995 | 34825 ft | 470 kts | 173° |
| 2026-05-04 00:12 | 35.26032 | -118.94465 | 34829 ft | 484 kts | 164° |
| 2026-05-04 00:12 | 35.23150 | -118.92162 | 34829 ft | 506 kts | 150° |
| 2026-05-04 00:12 | 35.20712 | -118.88933 | 34836 ft | 528 kts | 135° |
| 2026-05-04 00:12 | 35.18898 | -118.84945 | 34842 ft | 547 kts | 120° |
| 2026-05-04 00:13 | 35.16502 | -118.76016 | 34880 ft | 555 kts | 112° |
| 2026-05-04 00:13 | 35.14365 | -118.66937 | 34893 ft | 556 kts | 112° |
| 2026-05-04 00:14 | 35.12272 | -118.57925 | 34888 ft | 538 kts | 112° |
| 2026-05-04 00:14 | 35.11284 | -118.53598 | 34873 ft | 519 kts | 112° |
| 2026-05-04 00:14 | 35.10345 | -118.49421 | 34864 ft | 500 kts | 112° |
| 2026-05-04 00:15 | 35.09456 | -118.45401 | 34863 ft | 484 kts | 112° |
| 2026-05-04 00:15 | 35.08595 | -118.41468 | 34861 ft | 470 kts | 113° |
| 2026-05-04 00:15 | 35.07488 | -118.37862 | 34883 ft | 435 kts | 130° |
| 2026-05-04 00:15 | 35.05775 | -118.35038 | 34892 ft | 391 kts | 151° |
| 2026-05-04 00:16 | 35.03698 | -118.33237 | 34907 ft | 347 kts | 172° |
| 2026-05-04 00:16 | 35.01506 | -118.32447 | 34870 ft | 326 kts | 184° |
| 2026-05-04 00:16 | 34.99274 | -118.31572 | 34855 ft | 351 kts | 168° |
| 2026-05-04 00:16 | 34.97111 | -118.30056 | 34846 ft | 364 kts | 163° |
| 2026-05-04 00:17 | 34.92828 | -118.26695 | 34843 ft | 366 kts | 162° |
| 2026-05-04 00:17 | 34.88628 | -118.23313 | 34874 ft | 359 kts | 162° |
| 2026-05-04 00:18 | 34.84455 | -118.19926 | 34870 ft | 360 kts | 162° |
| 2026-05-04 00:18 | 34.80291 | -118.16524 | 34873 ft | 361 kts | 162° |
| 2026-05-04 00:19 | 34.76151 | -118.13123 | 34884 ft | 361 kts | 162° |
| 2026-05-04 00:19 | 34.71991 | -118.09684 | 34881 ft | 362 kts | 162° |
| 2026-05-04 00:20 | 34.69986 | -118.07733 | 34886 ft | 383 kts | 146° |
| 2026-05-04 00:20 | 34.68430 | -118.04973 | 34901 ft | 411 kts | 125° |
| 2026-05-04 00:20 | 34.67560 | -118.01577 | 34907 ft | 433 kts | 104° |